sensor_id;sensor_type;location;lat;lon;timestamp;temperature;humidity
32394;DHT22;18853;45.426;9.206;2023-02-01T00:01:43;12.60;47.80
32394;DHT22;18853;45.426;9.206;2023-02-01T00:04:09;12.60;47.80
32394;DHT22;18853;45.426;9.206;2023-02-01T00:06:35;12.60;47.70
32394;DHT22;18853;45.426;9.206;2023-02-01T00:09:01;12.60;47.70
32394;DHT22;18853;45.426;9.206;2023-02-01T00:11:27;12.50;47.70
32394;DHT22;18853;45.426;9.206;2023-02-01T00:13:52;12.60;47.70
32394;DHT22;18853;45.426;9.206;2023-02-01T00:16:27;12.60;47.70
32394;DHT22;18853;45.426;9.206;2023-02-01T00:19:07;12.60;47.50
32394;DHT22;18853;45.426;9.206;2023-02-01T00:21:34;12.60;47.50
32394;DHT22;18853;45.426;9.206;2023-02-01T00:24:00;12.60;47.50
32394;DHT22;18853;45.426;9.206;2023-02-01T00:26:39;12.50;47.50
32394;DHT22;18853;45.426;9.206;2023-02-01T00:29:16;12.50;47.50
32394;DHT22;18853;45.426;9.206;2023-02-01T00:31:42;12.50;47.40
32394;DHT22;18853;45.426;9.206;2023-02-01T00:34:14;12.50;47.40
32394;DHT22;18853;45.426;9.206;2023-02-01T00:36:40;12.50;47.40
32394;DHT22;18853;45.426;9.206;2023-02-01T00:39:06;12.50;47.40
32394;DHT22;18853;45.426;9.206;2023-02-01T00:41:32;12.40;47.30
32394;DHT22;18853;45.426;9.206;2023-02-01T00:43:58;12.50;47.40
32394;DHT22;18853;45.426;9.206;2023-02-01T00:46:24;12.40;47.30
32394;DHT22;18853;45.426;9.206;2023-02-01T00:48:49;12.40;47.30
32394;DHT22;18853;45.426;9.206;2023-02-01T00:51:20;12.40;47.30
32394;DHT22;18853;45.426;9.206;2023-02-01T00:53:46;12.40;47.30
32394;DHT22;18853;45.426;9.206;2023-02-01T00:56:12;12.30;47.30
32394;DHT22;18853;45.426;9.206;2023-02-01T00:58:39;12.30;47.20
32394;DHT22;18853;45.426;9.206;2023-02-01T01:03:37;12.30;47.00
32394;DHT22;18853;45.426;9.206;2023-02-01T01:06:06;12.30;47.00
32394;DHT22;18853;45.426;9.206;2023-02-01T01:08:33;12.30;46.90
32394;DHT22;18853;45.426;9.206;2023-02-01T01:11:03;12.30;47.50
32394;DHT22;18853;45.426;9.206;2023-02-01T01:13:29;12.30;46.60
32394;DHT22;18853;45.426;9.206;2023-02-01T01:15:54;12.30;46.60
32394;DHT22;18853;45.426;9.206;2023-02-01T01:18:20;12.30;46.40
32394;DHT22;18853;45.426;9.206;2023-02-01T01:20:47;12.30;46.30
32394;DHT22;18853;45.426;9.206;2023-02-01T01:23:14;12.30;46.20
32394;DHT22;18853;45.426;9.206;2023-02-01T01:25:39;12.30;46.60
32394;DHT22;18853;45.426;9.206;2023-02-01T01:28:06;12.30;46.00
32394;DHT22;18853;45.426;9.206;2023-02-01T01:30:33;12.20;45.80
32394;DHT22;18853;45.426;9.206;2023-02-01T01:32:59;12.30;45.70
32394;DHT22;18853;45.426;9.206;2023-02-01T01:35:25;12.20;45.30
32394;DHT22;18853;45.426;9.206;2023-02-01T01:37:51;12.20;45.20
32394;DHT22;18853;45.426;9.206;2023-02-01T01:40:16;12.10;45.70
32394;DHT22;18853;45.426;9.206;2023-02-01T01:42:43;12.10;44.90
32394;DHT22;18853;45.426;9.206;2023-02-01T01:45:26;12.10;44.70
32394;DHT22;18853;45.426;9.206;2023-02-01T01:48:23;12.10;44.50
32394;DHT22;18853;45.426;9.206;2023-02-01T01:51:07;12.10;44.40
32394;DHT22;18853;45.426;9.206;2023-02-01T01:53:48;12.10;44.20
32394;DHT22;18853;45.426;9.206;2023-02-01T01:56:15;12.10;43.90
32394;DHT22;18853;45.426;9.206;2023-02-01T01:58:41;12.10;44.00
32394;DHT22;18853;45.426;9.206;2023-02-01T02:01:08;12.10;43.80
32394;DHT22;18853;45.426;9.206;2023-02-01T02:03:44;12.10;43.60
32394;DHT22;18853;45.426;9.206;2023-02-01T02:06:30;12.10;43.20
32394;DHT22;18853;45.426;9.206;2023-02-01T02:08:57;12.10;42.90
32394;DHT22;18853;45.426;9.206;2023-02-01T02:11:23;12.10;43.00
32394;DHT22;18853;45.426;9.206;2023-02-01T02:13:51;12.10;42.70
32394;DHT22;18853;45.426;9.206;2023-02-01T02:34:32;12.00;41.60
32394;DHT22;18853;45.426;9.206;2023-02-01T02:37:29;11.90;42.30
32394;DHT22;18853;45.426;9.206;2023-02-01T02:40:14;12.00;41.20
32394;DHT22;18853;45.426;9.206;2023-02-01T02:43:09;11.90;41.40
32394;DHT22;18853;45.426;9.206;2023-02-01T02:46:01;11.90;41.10
32394;DHT22;18853;45.426;9.206;2023-02-01T02:51:32;11.80;41.30
32394;DHT22;18853;45.426;9.206;2023-02-01T02:54:23;11.90;41.10
32394;DHT22;18853;45.426;9.206;2023-02-01T02:57:11;11.80;41.10
32394;DHT22;18853;45.426;9.206;2023-02-01T02:59:59;11.80;41.10
32394;DHT22;18853;45.426;9.206;2023-02-01T03:02:46;11.80;41.00
32394;DHT22;18853;45.426;9.206;2023-02-01T03:05:35;11.90;41.00
32394;DHT22;18853;45.426;9.206;2023-02-01T03:08:13;11.90;40.60
32394;DHT22;18853;45.426;9.206;2023-02-01T03:11:09;12.00;40.30
32394;DHT22;18853;45.426;9.206;2023-02-01T03:21:48;12.00;39.10
32394;DHT22;18853;45.426;9.206;2023-02-01T03:24:35;11.90;39.30
32394;DHT22;18853;45.426;9.206;2023-02-01T03:27:33;12.00;39.20
32394;DHT22;18853;45.426;9.206;2023-02-01T03:32:31;11.90;39.10
32394;DHT22;18853;45.426;9.206;2023-02-01T03:35:18;11.90;39.00
32394;DHT22;18853;45.426;9.206;2023-02-01T03:37:47;11.90;39.00
32394;DHT22;18853;45.426;9.206;2023-02-01T03:40:15;11.90;38.90
32394;DHT22;18853;45.426;9.206;2023-02-01T03:42:48;11.90;38.80
32394;DHT22;18853;45.426;9.206;2023-02-01T03:45:27;11.90;38.70
32394;DHT22;18853;45.426;9.206;2023-02-01T03:47:56;12.00;38.60
32394;DHT22;18853;45.426;9.206;2023-02-01T03:50:24;11.90;38.80
32394;DHT22;18853;45.426;9.206;2023-02-01T03:53:01;12.00;38.80
32394;DHT22;18853;45.426;9.206;2023-02-01T03:55:31;12.00;38.50
32394;DHT22;18853;45.426;9.206;2023-02-01T04:00:30;12.00;38.80
32394;DHT22;18853;45.426;9.206;2023-02-01T04:02:55;12.00;38.80
32394;DHT22;18853;45.426;9.206;2023-02-01T04:05:22;11.90;38.90
32394;DHT22;18853;45.426;9.206;2023-02-01T04:07:47;12.00;39.20
32394;DHT22;18853;45.426;9.206;2023-02-01T04:10:13;12.00;39.40
32394;DHT22;18853;45.426;9.206;2023-02-01T04:12:39;12.00;39.60
32394;DHT22;18853;45.426;9.206;2023-02-01T04:15:05;12.00;39.90
32394;DHT22;18853;45.426;9.206;2023-02-01T04:17:31;11.90;40.20
32394;DHT22;18853;45.426;9.206;2023-02-01T04:19:57;12.00;40.50
32394;DHT22;18853;45.426;9.206;2023-02-01T04:22:23;12.00;40.70
32394;DHT22;18853;45.426;9.206;2023-02-01T04:24:49;12.00;40.90
32394;DHT22;18853;45.426;9.206;2023-02-01T04:27:16;12.10;41.20
32394;DHT22;18853;45.426;9.206;2023-02-01T04:29:42;12.10;41.30
32394;DHT22;18853;45.426;9.206;2023-02-01T04:32:08;12.10;41.60
32394;DHT22;18853;45.426;9.206;2023-02-01T04:34:33;12.10;41.90
32394;DHT22;18853;45.426;9.206;2023-02-01T04:36:59;12.00;42.20
32394;DHT22;18853;45.426;9.206;2023-02-01T04:39:25;12.00;42.40
32394;DHT22;18853;45.426;9.206;2023-02-01T04:41:50;12.00;42.70
32394;DHT22;18853;45.426;9.206;2023-02-01T04:44:17;12.00;43.00
32394;DHT22;18853;45.426;9.206;2023-02-01T04:46:46;12.00;43.30
32394;DHT22;18853;45.426;9.206;2023-02-01T04:49:12;12.00;43.60
32394;DHT22;18853;45.426;9.206;2023-02-01T04:51:38;12.00;43.60
32394;DHT22;18853;45.426;9.206;2023-02-01T04:54:04;12.00;43.90
32394;DHT22;18853;45.426;9.206;2023-02-01T04:56:30;12.00;44.20
32394;DHT22;18853;45.426;9.206;2023-02-01T04:58:56;12.00;44.30
32394;DHT22;18853;45.426;9.206;2023-02-01T05:01:23;12.00;44.50
32394;DHT22;18853;45.426;9.206;2023-02-01T05:03:50;12.00;44.80
32394;DHT22;18853;45.426;9.206;2023-02-01T05:06:16;12.00;45.10
32394;DHT22;18853;45.426;9.206;2023-02-01T05:08:42;12.00;45.40
32394;DHT22;18853;45.426;9.206;2023-02-01T05:11:08;12.00;45.60
32394;DHT22;18853;45.426;9.206;2023-02-01T05:13:54;12.00;45.70
32394;DHT22;18853;45.426;9.206;2023-02-01T05:16:19;12.00;45.80
32394;DHT22;18853;45.426;9.206;2023-02-01T05:18:45;12.00;46.10
32394;DHT22;18853;45.426;9.206;2023-02-01T05:21:11;12.00;46.30
32394;DHT22;18853;45.426;9.206;2023-02-01T05:23:36;11.90;46.50
32394;DHT22;18853;45.426;9.206;2023-02-01T05:26:22;11.90;46.70
32394;DHT22;18853;45.426;9.206;2023-02-01T05:28:48;11.80;46.80
32394;DHT22;18853;45.426;9.206;2023-02-01T05:31:15;11.90;47.00
32394;DHT22;18853;45.426;9.206;2023-02-01T05:33:41;11.90;47.10
32394;DHT22;18853;45.426;9.206;2023-02-01T05:36:07;11.90;47.20
32394;DHT22;18853;45.426;9.206;2023-02-01T05:38:33;12.00;47.30
32394;DHT22;18853;45.426;9.206;2023-02-01T05:40:58;11.90;47.50
32394;DHT22;18853;45.426;9.206;2023-02-01T05:43:24;12.00;47.40
32394;DHT22;18853;45.426;9.206;2023-02-01T05:45:52;12.10;47.40
32394;DHT22;18853;45.426;9.206;2023-02-01T05:48:17;12.10;47.40
32394;DHT22;18853;45.426;9.206;2023-02-01T05:50:43;12.20;47.30
32394;DHT22;18853;45.426;9.206;2023-02-01T05:53:09;12.30;47.40
32394;DHT22;18853;45.426;9.206;2023-02-01T05:55:36;12.20;47.40
32394;DHT22;18853;45.426;9.206;2023-02-01T05:58:02;12.20;47.50
32394;DHT22;18853;45.426;9.206;2023-02-01T06:00:28;12.30;47.60
32394;DHT22;18853;45.426;9.206;2023-02-01T06:02:53;12.20;47.70
32394;DHT22;18853;45.426;9.206;2023-02-01T06:05:19;12.30;47.90
32394;DHT22;18853;45.426;9.206;2023-02-01T06:07:45;12.30;47.90
32394;DHT22;18853;45.426;9.206;2023-02-01T06:10:10;12.30;47.80
32394;DHT22;18853;45.426;9.206;2023-02-01T06:12:36;12.30;47.70
32394;DHT22;18853;45.426;9.206;2023-02-01T06:15:02;12.30;47.70
32394;DHT22;18853;45.426;9.206;2023-02-01T06:17:28;12.20;47.30
32394;DHT22;18853;45.426;9.206;2023-02-01T06:19:54;12.10;47.00
32394;DHT22;18853;45.426;9.206;2023-02-01T06:22:20;12.00;46.50
32394;DHT22;18853;45.426;9.206;2023-02-01T06:24:47;11.90;46.60
32394;DHT22;18853;45.426;9.206;2023-02-01T06:27:13;11.80;46.60
32394;DHT22;18853;45.426;9.206;2023-02-01T06:29:38;11.70;46.70
32394;DHT22;18853;45.426;9.206;2023-02-01T06:32:04;11.60;46.80
32394;DHT22;18853;45.426;9.206;2023-02-01T06:34:30;11.40;46.90
32394;DHT22;18853;45.426;9.206;2023-02-01T06:36:56;11.40;47.10
32394;DHT22;18853;45.426;9.206;2023-02-01T06:39:21;11.30;47.20
32394;DHT22;18853;45.426;9.206;2023-02-01T06:41:48;11.30;47.20
32394;DHT22;18853;45.426;9.206;2023-02-01T06:44:15;11.30;47.20
32394;DHT22;18853;45.426;9.206;2023-02-01T06:46:41;11.20;47.30
32394;DHT22;18853;45.426;9.206;2023-02-01T06:49:08;11.20;47.30
32394;DHT22;18853;45.426;9.206;2023-02-01T06:51:34;11.10;47.40
32394;DHT22;18853;45.426;9.206;2023-02-01T06:54:00;11.10;47.40
32394;DHT22;18853;45.426;9.206;2023-02-01T06:56:26;11.10;47.50
32394;DHT22;18853;45.426;9.206;2023-02-01T06:58:52;11.10;47.60
32394;DHT22;18853;45.426;9.206;2023-02-01T07:01:18;11.00;47.70
32394;DHT22;18853;45.426;9.206;2023-02-01T07:03:48;11.00;47.90
32394;DHT22;18853;45.426;9.206;2023-02-01T07:06:14;11.00;48.20
32394;DHT22;18853;45.426;9.206;2023-02-01T07:08:40;10.90;48.30
32394;DHT22;18853;45.426;9.206;2023-02-01T07:11:07;10.90;48.30
32394;DHT22;18853;45.426;9.206;2023-02-01T07:13:35;10.90;48.30
32394;DHT22;18853;45.426;9.206;2023-02-01T07:16:03;10.90;48.40
32394;DHT22;18853;45.426;9.206;2023-02-01T07:18:29;10.90;48.40
32394;DHT22;18853;45.426;9.206;2023-02-01T07:20:56;10.90;48.40
32394;DHT22;18853;45.426;9.206;2023-02-01T07:23:22;10.90;48.30
32394;DHT22;18853;45.426;9.206;2023-02-01T07:25:48;10.80;47.80
32394;DHT22;18853;45.426;9.206;2023-02-01T07:28:14;10.80;47.90
32394;DHT22;18853;45.426;9.206;2023-02-01T07:30:40;10.70;48.20
32394;DHT22;18853;45.426;9.206;2023-02-01T07:33:06;10.70;48.30
32394;DHT22;18853;45.426;9.206;2023-02-01T07:35:32;10.70;48.40
32394;DHT22;18853;45.426;9.206;2023-02-01T07:37:57;10.60;48.30
32394;DHT22;18853;45.426;9.206;2023-02-01T07:40:24;10.60;48.30
32394;DHT22;18853;45.426;9.206;2023-02-01T07:42:54;10.60;48.30
32394;DHT22;18853;45.426;9.206;2023-02-01T07:45:21;10.50;48.20
32394;DHT22;18853;45.426;9.206;2023-02-01T07:47:47;10.40;48.40
32394;DHT22;18853;45.426;9.206;2023-02-01T07:50:13;10.30;48.70
32394;DHT22;18853;45.426;9.206;2023-02-01T07:52:39;10.30;48.70
32394;DHT22;18853;45.426;9.206;2023-02-01T07:55:06;10.30;48.80
32394;DHT22;18853;45.426;9.206;2023-02-01T07:57:32;10.20;48.40
32394;DHT22;18853;45.426;9.206;2023-02-01T07:59:58;10.20;48.10
32394;DHT22;18853;45.426;9.206;2023-02-01T08:02:42;10.20;48.20
32394;DHT22;18853;45.426;9.206;2023-02-01T08:05:08;10.20;48.20
32394;DHT22;18853;45.426;9.206;2023-02-01T08:07:33;10.20;48.30
32394;DHT22;18853;45.426;9.206;2023-02-01T08:09:59;10.20;48.30
32394;DHT22;18853;45.426;9.206;2023-02-01T08:12:25;10.30;48.20
32394;DHT22;18853;45.426;9.206;2023-02-01T08:14:52;10.40;48.20
32394;DHT22;18853;45.426;9.206;2023-02-01T08:17:19;10.40;48.20
32394;DHT22;18853;45.426;9.206;2023-02-01T08:19:44;10.40;48.10
32394;DHT22;18853;45.426;9.206;2023-02-01T08:22:10;10.40;48.00
32394;DHT22;18853;45.426;9.206;2023-02-01T08:24:36;10.50;48.20
32394;DHT22;18853;45.426;9.206;2023-02-01T08:27:05;10.50;48.00
32394;DHT22;18853;45.426;9.206;2023-02-01T08:29:31;10.50;48.10
32394;DHT22;18853;45.426;9.206;2023-02-01T08:31:56;10.60;47.90
32394;DHT22;18853;45.426;9.206;2023-02-01T08:34:22;10.60;47.80
32394;DHT22;18853;45.426;9.206;2023-02-01T08:36:48;10.60;47.90
32394;DHT22;18853;45.426;9.206;2023-02-01T08:39:14;10.50;48.00
32394;DHT22;18853;45.426;9.206;2023-02-01T08:41:40;10.50;48.30
32394;DHT22;18853;45.426;9.206;2023-02-01T08:44:07;10.50;48.30
32394;DHT22;18853;45.426;9.206;2023-02-01T08:46:33;10.50;48.30
32394;DHT22;18853;45.426;9.206;2023-02-01T08:48:59;10.60;48.30
32394;DHT22;18853;45.426;9.206;2023-02-01T08:51:24;10.70;48.30
32394;DHT22;18853;45.426;9.206;2023-02-01T08:53:51;10.80;48.10
32394;DHT22;18853;45.426;9.206;2023-02-01T08:56:18;10.90;48.00
32394;DHT22;18853;45.426;9.206;2023-02-01T08:58:44;11.00;47.90
32394;DHT22;18853;45.426;9.206;2023-02-01T09:01:13;11.10;47.80
32394;DHT22;18853;45.426;9.206;2023-02-01T09:03:39;11.20;47.80
32394;DHT22;18853;45.426;9.206;2023-02-01T09:06:08;11.30;47.70
32394;DHT22;18853;45.426;9.206;2023-02-01T09:08:34;11.30;47.70
32394;DHT22;18853;45.426;9.206;2023-02-01T09:11:01;11.40;47.70
32394;DHT22;18853;45.426;9.206;2023-02-01T09:13:27;11.40;47.80
32394;DHT22;18853;45.426;9.206;2023-02-01T09:15:53;11.40;48.30
32394;DHT22;18853;45.426;9.206;2023-02-01T09:18:19;11.40;48.50
32394;DHT22;18853;45.426;9.206;2023-02-01T09:20:45;11.40;48.60
32394;DHT22;18853;45.426;9.206;2023-02-01T09:23:11;11.50;48.60
32394;DHT22;18853;45.426;9.206;2023-02-01T09:25:37;11.50;48.80
32394;DHT22;18853;45.426;9.206;2023-02-01T09:28:04;11.60;48.70
32394;DHT22;18853;45.426;9.206;2023-02-01T09:30:32;11.60;48.70
32394;DHT22;18853;45.426;9.206;2023-02-01T09:32:58;11.70;48.60
32394;DHT22;18853;45.426;9.206;2023-02-01T09:35:25;11.80;48.50
32394;DHT22;18853;45.426;9.206;2023-02-01T09:37:53;11.90;48.20
32394;DHT22;18853;45.426;9.206;2023-02-01T09:40:19;12.00;47.90
32394;DHT22;18853;45.426;9.206;2023-02-01T09:43:10;12.20;47.60
32394;DHT22;18853;45.426;9.206;2023-02-01T09:48:31;12.40;47.00
32394;DHT22;18853;45.426;9.206;2023-02-01T09:50:59;12.40;46.50
32394;DHT22;18853;45.426;9.206;2023-02-01T09:53:27;12.40;45.60
32394;DHT22;18853;45.426;9.206;2023-02-01T09:56:07;12.50;44.50
32394;DHT22;18853;45.426;9.206;2023-02-01T09:59:02;12.60;43.70
32394;DHT22;18853;45.426;9.206;2023-02-01T10:01:29;12.70;43.10
32394;DHT22;18853;45.426;9.206;2023-02-01T10:04:04;12.70;43.70
32394;DHT22;18853;45.426;9.206;2023-02-01T10:09:50;12.90;43.40
32394;DHT22;18853;45.426;9.206;2023-02-01T10:22:44;13.20;43.90
32394;DHT22;18853;45.426;9.206;2023-02-01T10:27:41;13.20;44.50
32394;DHT22;18853;45.426;9.206;2023-02-01T10:32:40;13.30;45.30
32394;DHT22;18853;45.426;9.206;2023-02-01T10:35:22;13.30;45.90
32394;DHT22;18853;45.426;9.206;2023-02-01T10:37:49;13.40;46.40
32394;DHT22;18853;45.426;9.206;2023-02-01T10:40:24;13.40;46.80
32394;DHT22;18853;45.426;9.206;2023-02-01T10:42:59;13.40;47.10
32394;DHT22;18853;45.426;9.206;2023-02-01T10:45:29;13.50;47.30
32394;DHT22;18853;45.426;9.206;2023-02-01T10:47:57;13.50;47.40
32394;DHT22;18853;45.426;9.206;2023-02-01T10:56:24;13.60;47.90
32394;DHT22;18853;45.426;9.206;2023-02-01T10:58:50;13.60;47.80
32394;DHT22;18853;45.426;9.206;2023-02-01T11:01:30;13.60;48.20
32394;DHT22;18853;45.426;9.206;2023-02-01T11:04:04;13.70;48.30
32394;DHT22;18853;45.426;9.206;2023-02-01T11:06:33;13.70;48.20
32394;DHT22;18853;45.426;9.206;2023-02-01T11:11:31;13.70;48.20
32394;DHT22;18853;45.426;9.206;2023-02-01T11:14:16;13.80;48.20
32394;DHT22;18853;45.426;9.206;2023-02-01T11:16:48;13.90;48.20
32394;DHT22;18853;45.426;9.206;2023-02-01T11:19:16;13.90;48.10
32394;DHT22;18853;45.426;9.206;2023-02-01T11:21:43;14.00;48.20
32394;DHT22;18853;45.426;9.206;2023-02-01T11:24:28;14.00;48.40
32394;DHT22;18853;45.426;9.206;2023-02-01T11:26:57;14.00;48.80
32394;DHT22;18853;45.426;9.206;2023-02-01T11:29:25;14.00;48.70
32394;DHT22;18853;45.426;9.206;2023-02-01T11:31:58;14.00;48.80
32394;DHT22;18853;45.426;9.206;2023-02-01T11:34:29;14.10;48.90
32394;DHT22;18853;45.426;9.206;2023-02-01T11:37:00;14.20;48.90
32394;DHT22;18853;45.426;9.206;2023-02-01T11:39:33;14.20;49.00
32394;DHT22;18853;45.426;9.206;2023-02-01T11:42:15;14.10;49.20
32394;DHT22;18853;45.426;9.206;2023-02-01T11:44:46;14.10;49.10
32394;DHT22;18853;45.426;9.206;2023-02-01T11:47:28;14.20;49.00
32394;DHT22;18853;45.426;9.206;2023-02-01T11:49:59;14.30;49.10
32394;DHT22;18853;45.426;9.206;2023-02-01T11:56:01;14.40;49.30
32394;DHT22;18853;45.426;9.206;2023-02-01T12:01:16;14.60;49.30
32394;DHT22;18853;45.426;9.206;2023-02-01T12:06:31;14.70;49.00
32394;DHT22;18853;45.426;9.206;2023-02-01T12:16:56;15.10;48.30
32394;DHT22;18853;45.426;9.206;2023-02-01T12:37:51;16.00;47.40
32394;DHT22;18853;45.426;9.206;2023-02-01T12:43:07;16.10;47.00
32394;DHT22;18853;45.426;9.206;2023-02-01T12:45:47;16.20;46.70
32394;DHT22;18853;45.426;9.206;2023-02-01T12:48:38;16.40;46.50
32394;DHT22;18853;45.426;9.206;2023-02-01T12:51:18;16.60;46.30
32394;DHT22;18853;45.426;9.206;2023-02-01T12:56:51;16.80;45.60
32394;DHT22;18853;45.426;9.206;2023-02-01T12:59:36;16.80;45.70
32394;DHT22;18853;45.426;9.206;2023-02-01T13:05:21;17.10;45.20
32394;DHT22;18853;45.426;9.206;2023-02-01T13:10:33;17.30;44.90
32394;DHT22;18853;45.426;9.206;2023-02-01T13:13:09;17.50;44.60
32394;DHT22;18853;45.426;9.206;2023-02-01T13:15:41;17.60;44.20
32394;DHT22;18853;45.426;9.206;2023-02-01T13:18:15;17.70;44.00
32394;DHT22;18853;45.426;9.206;2023-02-01T13:20:58;17.70;43.80
32394;DHT22;18853;45.426;9.206;2023-02-01T13:23:30;17.80;43.60
32394;DHT22;18853;45.426;9.206;2023-02-01T13:25:56;17.80;43.80
32394;DHT22;18853;45.426;9.206;2023-02-01T13:28:28;17.90;43.30
32394;DHT22;18853;45.426;9.206;2023-02-01T13:36:34;18.20;42.40
32394;DHT22;18853;45.426;9.206;2023-02-01T13:41:58;18.40;42.10
32394;DHT22;18853;45.426;9.206;2023-02-01T13:44:38;18.60;41.90
32394;DHT22;18853;45.426;9.206;2023-02-01T13:47:18;18.80;41.60
32394;DHT22;18853;45.426;9.206;2023-02-01T13:49:46;18.90;41.10
32394;DHT22;18853;45.426;9.206;2023-02-01T13:55:13;19.00;40.80
32394;DHT22;18853;45.426;9.206;2023-02-01T13:57:42;19.10;40.10
32394;DHT22;18853;45.426;9.206;2023-02-01T14:03:17;19.20;40.30
32394;DHT22;18853;45.426;9.206;2023-02-01T14:08:23;19.50;39.70
32394;DHT22;18853;45.426;9.206;2023-02-01T14:10:57;19.70;39.50
32394;DHT22;18853;45.426;9.206;2023-02-01T14:13:38;19.90;39.00
32394;DHT22;18853;45.426;9.206;2023-02-01T14:26:23;20.20;38.40
32394;DHT22;18853;45.426;9.206;2023-02-01T14:34:39;20.30;38.00
32394;DHT22;18853;45.426;9.206;2023-02-01T14:44:47;20.90;36.90
32394;DHT22;18853;45.426;9.206;2023-02-01T14:50:07;20.80;36.60
32394;DHT22;18853;45.426;9.206;2023-02-01T14:52:37;20.80;36.90
32394;DHT22;18853;45.426;9.206;2023-02-01T14:55:24;20.70;37.10
32394;DHT22;18853;45.426;9.206;2023-02-01T14:57:53;20.80;36.60
32394;DHT22;18853;45.426;9.206;2023-02-01T15:02:48;20.90;36.80
32394;DHT22;18853;45.426;9.206;2023-02-01T15:05:31;20.90;36.80
32394;DHT22;18853;45.426;9.206;2023-02-01T15:08:14;20.90;36.40
32394;DHT22;18853;45.426;9.206;2023-02-01T15:10:46;20.80;36.60
32394;DHT22;18853;45.426;9.206;2023-02-01T15:13:23;20.90;36.70
32394;DHT22;18853;45.426;9.206;2023-02-01T15:16:09;20.90;36.40
32394;DHT22;18853;45.426;9.206;2023-02-01T15:18:35;20.80;36.60
32394;DHT22;18853;45.426;9.206;2023-02-01T15:21:02;20.70;37.20
32394;DHT22;18853;45.426;9.206;2023-02-01T15:23:29;20.70;37.20
32394;DHT22;18853;45.426;9.206;2023-02-01T15:25:55;20.70;37.40
32394;DHT22;18853;45.426;9.206;2023-02-01T15:28:22;20.70;37.30
32394;DHT22;18853;45.426;9.206;2023-02-01T15:30:53;20.70;37.30
32394;DHT22;18853;45.426;9.206;2023-02-01T15:33:20;20.70;37.30
32394;DHT22;18853;45.426;9.206;2023-02-01T15:43:19;20.20;38.30
32394;DHT22;18853;45.426;9.206;2023-02-01T15:45:45;20.20;38.60
32394;DHT22;18853;45.426;9.206;2023-02-01T15:48:19;20.10;38.80
32394;DHT22;18853;45.426;9.206;2023-02-01T15:50:45;19.90;39.10
32394;DHT22;18853;45.426;9.206;2023-02-01T15:53:19;19.70;39.50
32394;DHT22;18853;45.426;9.206;2023-02-01T15:55:45;19.50;39.90
32394;DHT22;18853;45.426;9.206;2023-02-01T15:58:20;19.30;40.30
32394;DHT22;18853;45.426;9.206;2023-02-01T16:00:58;19.20;40.70
32394;DHT22;18853;45.426;9.206;2023-02-01T16:03:40;19.10;41.00
32394;DHT22;18853;45.426;9.206;2023-02-01T16:09:15;18.80;41.70
32394;DHT22;18853;45.426;9.206;2023-02-01T16:12:02;18.70;41.80
32394;DHT22;18853;45.426;9.206;2023-02-01T16:14:29;18.60;42.30
32394;DHT22;18853;45.426;9.206;2023-02-01T16:16:58;18.50;42.50
32394;DHT22;18853;45.426;9.206;2023-02-01T16:19:24;18.50;42.60
32394;DHT22;18853;45.426;9.206;2023-02-01T16:21:54;18.40;42.80
32394;DHT22;18853;45.426;9.206;2023-02-01T16:24:20;18.40;43.00
32394;DHT22;18853;45.426;9.206;2023-02-01T16:26:48;18.30;43.10
32394;DHT22;18853;45.426;9.206;2023-02-01T16:29:14;18.30;43.30
32394;DHT22;18853;45.426;9.206;2023-02-01T16:31:41;18.20;43.50
32394;DHT22;18853;45.426;9.206;2023-02-01T16:34:14;18.20;43.70
32394;DHT22;18853;45.426;9.206;2023-02-01T16:36:42;18.10;44.00
32394;DHT22;18853;45.426;9.206;2023-02-01T16:39:11;18.00;44.20
32394;DHT22;18853;45.426;9.206;2023-02-01T16:41:36;18.00;44.30
32394;DHT22;18853;45.426;9.206;2023-02-01T16:44:03;17.90;44.30
32394;DHT22;18853;45.426;9.206;2023-02-01T16:46:35;17.80;44.50
32394;DHT22;18853;45.426;9.206;2023-02-01T16:49:05;17.80;44.70
32394;DHT22;18853;45.426;9.206;2023-02-01T16:51:32;17.70;44.80
32394;DHT22;18853;45.426;9.206;2023-02-01T16:54:01;17.70;44.90
32394;DHT22;18853;45.426;9.206;2023-02-01T16:56:32;17.70;45.00
32394;DHT22;18853;45.426;9.206;2023-02-01T16:58:58;17.60;45.00
32394;DHT22;18853;45.426;9.206;2023-02-01T17:01:25;17.50;45.20
32394;DHT22;18853;45.426;9.206;2023-02-01T17:03:51;17.40;45.40
32394;DHT22;18853;45.426;9.206;2023-02-01T17:06:20;17.40;45.40
32394;DHT22;18853;45.426;9.206;2023-02-01T17:08:51;17.50;45.50
32394;DHT22;18853;45.426;9.206;2023-02-01T17:11:18;17.50;45.60
32394;DHT22;18853;45.426;9.206;2023-02-01T17:13:44;17.40;45.50
32394;DHT22;18853;45.426;9.206;2023-02-01T17:16:24;17.40;45.70
32394;DHT22;18853;45.426;9.206;2023-02-01T17:18:57;17.40;45.90
32394;DHT22;18853;45.426;9.206;2023-02-01T17:21:26;17.20;46.10
32394;DHT22;18853;45.426;9.206;2023-02-01T17:23:53;17.10;46.40
32394;DHT22;18853;45.426;9.206;2023-02-01T17:26:19;17.10;46.50
32394;DHT22;18853;45.426;9.206;2023-02-01T17:28:44;17.20;46.60
32394;DHT22;18853;45.426;9.206;2023-02-01T17:31:13;17.20;46.40
32394;DHT22;18853;45.426;9.206;2023-02-01T17:33:41;17.10;46.50
32394;DHT22;18853;45.426;9.206;2023-02-01T17:36:14;17.10;46.60
32394;DHT22;18853;45.426;9.206;2023-02-01T17:38:40;17.10;46.60
32394;DHT22;18853;45.426;9.206;2023-02-01T17:41:09;17.00;46.60
32394;DHT22;18853;45.426;9.206;2023-02-01T17:46:17;16.90;46.90
32394;DHT22;18853;45.426;9.206;2023-02-01T17:48:45;16.90;47.00
32394;DHT22;18853;45.426;9.206;2023-02-01T17:51:15;16.90;47.10
32394;DHT22;18853;45.426;9.206;2023-02-01T17:53:41;16.90;47.10
32394;DHT22;18853;45.426;9.206;2023-02-01T17:56:15;16.90;47.10
32394;DHT22;18853;45.426;9.206;2023-02-01T17:58:41;16.90;47.10
32394;DHT22;18853;45.426;9.206;2023-02-01T18:01:12;16.90;47.20
32394;DHT22;18853;45.426;9.206;2023-02-01T18:03:38;16.90;47.20
32394;DHT22;18853;45.426;9.206;2023-02-01T18:06:09;16.80;47.20
32394;DHT22;18853;45.426;9.206;2023-02-01T18:08:35;16.80;47.40
32394;DHT22;18853;45.426;9.206;2023-02-01T18:11:01;16.80;47.30
32394;DHT22;18853;45.426;9.206;2023-02-01T18:13:28;16.70;47.20
32394;DHT22;18853;45.426;9.206;2023-02-01T18:15:56;16.80;47.20
32394;DHT22;18853;45.426;9.206;2023-02-01T18:18:24;16.80;47.20
32394;DHT22;18853;45.426;9.206;2023-02-01T18:20:50;16.70;47.10
32394;DHT22;18853;45.426;9.206;2023-02-01T18:23:19;16.80;47.30
32394;DHT22;18853;45.426;9.206;2023-02-01T18:25:45;16.80;47.40
32394;DHT22;18853;45.426;9.206;2023-02-01T18:28:15;16.80;47.50
32394;DHT22;18853;45.426;9.206;2023-02-01T18:30:51;16.80;47.40
32394;DHT22;18853;45.426;9.206;2023-02-01T18:33:18;16.80;47.40
32394;DHT22;18853;45.426;9.206;2023-02-01T18:35:44;16.70;47.30
32394;DHT22;18853;45.426;9.206;2023-02-01T18:38:10;16.70;47.40
32394;DHT22;18853;45.426;9.206;2023-02-01T18:40:53;16.70;47.30